Weather 🌤️

Recent data

Temperatures

Wind

Pressure

Humidity & Precipitation

Last data
obsTime qcStatus tempAvg heatindexAvg windspeedAvg windgustAvg winddirAvg pressureAvg humidityAvg precipRate precipTotal
2026-09-05 16:04:49 1 28.9 29 3.9 20.9 255 1001.86 45 0 0
2026-09-05 15:59:57 1 29 29.1 7 20.9 318 1002.03 45 0 0
2026-09-05 15:54:57 1 29 29 2.7 20.9 262 1002.03 44.2 0 0
2026-09-05 15:49:57 1 29 29.1 4.8 20.9 307 1002.2 45 0 0
2026-09-05 15:44:57 1 28.8 28.9 4 20.9 199 1001.86 44.9 0 0
2026-09-05 15:39:49 1 28.7 28.8 4.7 20.9 176 1002.03 44.5 0 0
2026-09-05 15:34:49 1 28.7 28.7 4.5 20.9 222 1002.03 44.8 0 0
2026-09-05 15:29:57 1 28.7 28.7 7.8 20.3 271 1002.2 44.8 0 0
2026-09-05 15:24:57 1 28.6 28.6 6.8 11.9 321 1002.2 44.2 0 0
2026-09-05 15:19:53 1 28.6 28.6 3.5 11.9 285 1002.2 44 0 0
2026-09-05 15:14:52 1 28.5 28.5 5.1 11.9 212 1002.2 44 0 0
2026-09-05 15:09:57 1 28.6 28.5 3.7 11.9 207 1002.37 44 0 0

Hourly data

Temperatures

Wind

Pressure

Humidity & Precipitation

Last data
obsTime qcStatus tempAvg heatindexAvg windspeedAvg windgustAvg winddirAvg pressureAvg humidityAvg precipRate precipTotal
2026-09-05 15:59:49 1 28.7 28.7 5 17 255 1002.03 44.4 0 0
2026-09-05 14:59:49 1 28.1 28.1 4.6 11.4 234 1002.37 45.1 0 0
2026-09-05 13:59:49 1 27.1 27.2 3.8 10.4 261 1002.71 46.5 0 0
2026-09-05 12:59:48 1 26.4 26.3 3.4 7.7 230 1003.05 47 0 0
2026-09-05 11:59:57 1 25.2 25 2.2 6.1 211 1003.22 48.3 0 0
2026-09-05 10:59:57 1 22.6 22.2 1.6 4.5 184 1003.05 51.2 0 0
2026-09-05 09:59:50 1 21 20.8 0.5 2.9 164 1002.71 52.7 0 0
2026-09-05 08:59:49 0 20.5 20.5 0.3 2.1 167 1002.2 52.1 0 0
2026-09-05 07:59:48 0 20.4 20.4 0.2 1.7 164 1001.69 51 0 0
2026-09-05 06:59:51 0 21.2 20.8 0.1 1.9 148 1001.36 48.9 0 0
2026-09-05 05:59:50 0 22.1 21.6 0 1.9 186 1001.36 46.4 0 0
2026-09-05 04:59:49 0 22.9 22.4 0.8 4.5 230 1000.68 44.4 0 0
2026-09-05 03:59:49 0 23.5 23 1.1 5.5 222 1000.34 43.2 0 0
2026-09-05 02:59:57 0 24.2 23.8 0.9 3.8 217 1000.85 42.3 0 0
2026-09-05 01:59:58 0 25.1 24.7 0.6 3.8 225 1000.85 40.8 0 0
2026-09-05 00:59:52 0 26 25.6 0.8 4.8 219 1000.17 38.7 0 0
2026-09-04 23:59:50 0 26.9 26.5 2.4 7.6 223 1000 36.7 0 0
2026-09-04 22:59:51 0 28.2 27.5 2.6 11.4 225 999.49 34.9 0 0
2026-09-04 21:59:51 0 29.2 28.3 3.1 8 223 998.65 33.8 0 0
2026-09-04 20:59:51 1 30.4 29.4 1.7 13.2 226 997.8 32.3 0 0
2026-09-04 19:59:50 1 31.8 30.9 8.4 18.9 231 996.95 31.9 0 0
2026-09-04 18:59:54 1 32.6 32.1 10.7 20.1 236 996.62 33.8 0 0
2026-09-04 17:59:51 1 32.5 32.1 9 20.7 236 996.44 35 0 0
2026-09-04 16:59:51 0 31.1 30.7 6.7 15.3 226 996.62 36.1 0 0